Thursday, August 16, 2018, 9:57 AM EDT
Back to Local

KPVC, Provincetown, Provincetown Municipal Airport

Location: Provincetown, MA, United States Lat: 42.067
Local Time: 9:57 AM EDT (13:57 GMT) Lon: -70.217
Time Zone: US/Eastern Elev: 6 ft

Show me the last for .
Show Decoded

2018-08-16 08:56 METAR KPVC 161256Z AUTO 28010KT 10SM CLR 24/21 A2999 RMK AO2 SLP155 T02440211 =
2018-08-16 07:56 METAR KPVC 161156Z AUTO 27006KT 10SM CLR 23/21 A2998 RMK AO2 SLP152 T02330211
                 10233 20211 51018 =
2018-08-16 06:56 METAR KPVC 161056Z AUTO 26005KT 10SM CLR 22/21 A2997 RMK AO2 SLP147 T02220206 =
2018-08-16 05:56 METAR KPVC 160956Z AUTO 25005KT 10SM CLR 21/20 A2995 RMK AO2 SLP141 T02110200 =
2018-08-16 04:56 METAR KPVC 160856Z AUTO 25007KT 10SM CLR 22/20 A2993 RMK AO2 SLP134 T02170200
                 53005 =
2018-08-16 03:56 METAR KPVC 160756Z AUTO 24008KT 10SM CLR 22/20 A2992 RMK AO2 SLP130 T02170200 =
2018-08-16 02:56 METAR KPVC 160656Z AUTO 23007KT 10SM CLR 22/20 A2991 RMK AO2 SLP128 T02170200 =
2018-08-16 01:56 METAR KPVC 160556Z AUTO 25006KT 10SM CLR 21/20 A2991 RMK AO2 SLP129 T02110200
                 10233 20211 53001 =
2018-08-16 00:56 METAR KPVC 160456Z AUTO 25008KT 10SM CLR 22/21 A2991 RMK AO2 SLP128 T02220206
                 402670211 =
2018-08-15 23:56 METAR KPVC 160356Z AUTO 25009KT 10SM CLR 23/21 A2991 RMK AO2 SLP128 T02330211 =
2018-08-15 22:56 METAR KPVC 160256Z AUTO 24007KT 10SM CLR 23/21 A2991 RMK AO2 SLP128 T02280211
                 51016 =
2018-08-15 21:56 METAR KPVC 160156Z AUTO 23005KT 10SM CLR 23/22 A2990 RMK AO2 SLP124 T02330222 =
2018-08-15 20:56 METAR KPVC 160056Z AUTO 20006KT 10SM CLR 23/22 A2989 RMK AO2 SLP120 T02330217 =
2018-08-15 19:56 METAR KPVC 152356Z AUTO 18004KT 10SM CLR 23/21 A2986 RMK AO2 SLP112 T02330206
                 10267 20233 53006 =
2018-08-15 18:56 METAR KPVC 152256Z AUTO 19005KT 10SM CLR 24/21 A2985 RMK AO2 SLP106 T02440211 =
2018-08-15 17:56 METAR KPVC 152156Z AUTO 20005KT 10SM CLR 25/21 A2985 RMK AO2 SLP108 T02500211 =
2018-08-15 16:56 METAR KPVC 152056Z AUTO 23005KT 10SM CLR 26/21 A2985 RMK AO2 SLP106 T02610211
                 55002 =
2018-08-15 15:56 METAR KPVC 151956Z AUTO 02005KT 10SM CLR 26/21 A2984 RMK AO2 SLP105 T02610211 =
2018-08-15 14:56 METAR KPVC 151856Z AUTO VRB04KT 10SM CLR 26/21 A2985 RMK AO2 SLP106 T02560211 =
2018-08-15 13:56 METAR KPVC 151756Z AUTO 03004KT 10SM CLR 25/21 A2985 RMK AO2 SLP108 T02500211
                 10256 20222 57002 =
2018-08-15 12:56 METAR KPVC 151656Z AUTO 35005KT 10SM CLR 25/21 A2986 RMK AO2 LTG DSNT S SLP110
                 T02500211 =
2018-08-15 11:56 METAR KPVC 151556Z AUTO 35005KT 10SM CLR 24/21 A2985 RMK AO2 LTG DSNT S SLP108
                 T02440211 =
2018-08-15 10:56 METAR KPVC 151456Z AUTO 34006KT 10SM CLR 23/21 A2986 RMK AO2 SLP110 T02330211
                 53005 =

Support USWX by starting your Amazon purchase here.